Flight Track Log - Related Links

Times and Time Zones

All times are in EST time to prevent confusion due to time zone crossing. See the EJA922 flight status page for this flight to view local times or setup timezone preferences in your user account.


Time Position Orientation Groundspeed Altitude Reporting Facility
EST Latitude Longitude Course Direction KTS MPH feet Rate Location/Type
Sun 03:12:50 PM 36.0753 -115.1739 317° Northwest 203 234 4,000  Level Los Angeles Center
Sun 03:13:15 PM 36.0761 -115.2003 272° West 205 236 6,000 2,069 Climbing Los Angeles Center
Sun 03:14:17 PM 36.0358 -115.2725 235° Southwest 272 313 7,000 774 Climbing Los Angeles Center
Sun 03:15:19 PM 35.9664 -115.3056 201° Southwest 268 308 7,600 1,872 Climbing Los Angeles Center
Sun 03:16:22 PM 35.9039 -115.3819 225° Southwest 293 337 10,900 2,544 Climbing Los Angeles Center
Sun 03:17:24 PM 35.8864 -115.4867 258° West 330 380 12,900 2,081 Climbing Los Angeles Center
Sun 03:18:00 PM 36.7541 -115.5032 317° Northwest  Level Estimated
Sun 03:18:26 PM 35.8892 -115.6094 272° West 358 412 15,200  Level Los Angeles Center
Sun 03:19:28 PM 35.8914 -115.7467 271° West 371 427 17,700 2,032 Climbing Los Angeles Center
Sun 03:20:30 PM 35.8933 -115.8769 271° West 381 438 19,400 1,597 Climbing Los Angeles Center
Sun 03:21:32 PM 35.9150 -115.9850 284° West 384 442 21,000 1,790 Climbing Los Angeles Center
Sun 03:22:34 PM 36.0122 -116.1042 315° West 400 460 23,100 1,790 Climbing Los Angeles Center
Sun 03:23:36 PM 36.0936 -116.2011 316° Northwest 405 466 24,700 1,548 Climbing Los Angeles Center
Sun 03:24:38 PM 36.1764 -116.2933 318° Northwest 411 473 26,300 1,488 Climbing Los Angeles Center
Sun 03:25:41 PM 36.2636 -116.3947 317° Northwest 424 488 27,800 1,632 Climbing Los Angeles Center
Sun 03:26:43 PM 36.3728 -116.5158 318° Northwest 437 503 29,700 1,694 Climbing Los Angeles Center
Sun 03:27:45 PM 36.4725 -116.6083 323° Northwest 446 513 31,300 1,839 Climbing Los Angeles Center
Sun 03:28:47 PM 36.5775 -116.7089 322° Northwest 451 519 33,500 2,323 Climbing Los Angeles Center
Sun 03:29:49 PM 36.6761 -116.8042 322° Northwest 450 518 36,100 2,274 Climbing Los Angeles Center
Sun 03:30:51 PM 36.7658 -116.8892 323° Northwest 437 503 38,200 1,927 Climbing Los Angeles Center
Sun 03:32:06 PM 36.8883 -117.0042 323° Northwest 434 499 40,500 1,708 Climbing Los Angeles Center
Sun 03:33:08 PM 36.9842 -117.0956 323° Northwest 433 498 42,100 1,210 Climbing Los Angeles Center
Sun 03:34:10 PM 37.0983 -117.2061 322° Northwest 430 495 43,000 435 Climbing Los Angeles Center
Sun 03:35:12 PM 37.2133 -117.2783 333° Northwest 472 543 43,000  Level Los Angeles Center
Sun 03:36:14 PM 37.3361 -117.3453 337° Northwest 480 552 43,000  Level Los Angeles Center
Sun 03:37:14 PM 37.4603 -117.4111 337° Northwest 484 557 43,000  Level Oakland Center
Sun 03:38:16 PM 37.5861 -117.4806 336° Northwest 488 562 43,000  Level Oakland Center
Sun 03:39:17 PM 37.7114 -117.5494 336° Northwest 487 560 43,000  Level Oakland Center
Sun 03:40:19 PM 37.8367 -117.6181 337° Northwest 486 559 43,000  Level Oakland Center
Sun 03:41:20 PM 37.9631 -117.6872 337° Northwest 489 563 43,000  Level Oakland Center
Sun 03:42:22 PM 38.0869 -117.7569 336° Northwest 483 556 43,000  Level Oakland Center
Sun 03:43:24 PM 38.2119 -117.8253 337° Northwest 484 557 43,000  Level Oakland Center
Sun 03:44:25 PM 38.3369 -117.8944 337° Northwest 485 558 43,000  Level Oakland Center
Sun 03:45:27 PM 38.4856 -117.9783 336° Northwest 483 556 43,000  Level Oakland Center
Sun 03:46:28 PM 38.6094 -118.0481 336° Northwest 484 557 43,000  Level Oakland Center
Sun 03:47:30 PM 38.7186 -118.1092 336° Northwest 484 557 43,000  Level Oakland Center
Sun 03:48:32 PM 38.8656 -118.1931 336° Northwest 482 555 43,000  Level Oakland Center
Sun 03:49:33 PM 38.9883 -118.2622 336° Northwest 483 556 43,000  Level Oakland Center
Sun 03:50:35 PM 39.1103 -118.3325 336° Northwest 481 554 43,000  Level Oakland Center
Sun 03:51:36 PM 39.2400 -118.4075 336° Northwest 484 557 43,000  Level Oakland Center
Sun 03:52:38 PM 39.3475 -118.4703 336° Northwest 482 555 43,000  Level Oakland Center
Sun 03:53:40 PM 39.4733 -118.5417 336° Northwest 481 554 43,000  Level Oakland Center
Sun 03:54:41 PM 39.6156 -118.6250 336° Northwest 477 549 43,000  Level Oakland Center
Sun 03:55:43 PM 39.7336 -118.6942 336° Northwest 472 543 43,000  Level Oakland Center
Sun 03:56:44 PM 39.8531 -118.7639 336° Northwest 472 543 43,000  Level Oakland Center
Sun 03:57:46 PM 39.9739 -118.8344 336° Northwest 477 549 43,000  Level Oakland Center
Sun 03:58:48 PM 40.0947 -118.9069 335° Northwest 479 551 43,000  Level Oakland Center
Sun 03:59:49 PM 40.2150 -118.9783 336° Northwest 475 547 43,000  Level Oakland Center
Sun 04:00:51 PM 40.3350 -119.0500 336° Northwest 475 547 43,000  Level Oakland Center
Sun 04:01:53 PM 40.4778 -119.1358 335° Northwest 472 543 43,000  Level Oakland Center
Sun 04:02:54 PM 40.5978 -119.2075 336° Northwest 472 543 43,000  Level Oakland Center
Sun 04:03:56 PM 40.7175 -119.2789 336° Northwest 473 544 43,000  Level Oakland Center
Sun 04:04:57 PM 40.8381 -119.3525 335° Northwest 468 539 43,000  Level Oakland Center
Sun 04:05:59 PM 40.9519 -119.4208 336° Northwest 466 536 43,000  Level Oakland Center
Sun 04:07:01 PM 41.0836 -119.5006 335° Northwest 466 536 43,000  Level Oakland Center
Sun 04:08:02 PM 41.1917 -119.5706 334° Northwest 461 531 43,000  Level Oakland Center
Sun 04:09:04 PM 41.3100 -119.6406 336° Northwest 465 535 43,000  Level Oakland Center
Sun 04:10:05 PM 41.4261 -119.7142 335° Northwest 463 533 43,000  Level Oakland Center
Sun 04:11:07 PM 41.5419 -119.7850 335° Northwest 461 531 43,000  Level Oakland Center
Sun 04:12:09 PM 41.6817 -119.8717 335° Northwest 462 532 43,000  Level Oakland Center
Sun 04:13:10 PM 41.7964 -119.9428 335° Northwest 458 527 43,000  Level Oakland Center
Sun 04:14:12 PM 41.9119 -120.0169 334° Northwest 461 531 43,000  Level Oakland Center
Sun 04:15:10 PM 42.0281 -120.0839 337° Northwest 465 535 43,000  Level Salt Lake Center
Sun 04:16:11 PM 42.1328 -120.1508 335° Northwest 465 535 43,000  Level Salt Lake Center
Sun 04:17:13 PM 42.2731 -120.2386 335° Northwest 464 534 43,000  Level Salt Lake Center
Sun 04:18:15 PM 42.3903 -120.3125 335° Northwest 464 534 43,000  Level Salt Lake Center
Sun 04:19:31 PM 42.5447 -120.4156 334° Northwest 461 531 43,000  Level Seattle Center
Sun 04:20:32 PM 42.6600 -120.4889 335° Northwest 461 531 43,000  Level Seattle Center
Sun 04:21:33 PM 42.7764 -120.5644 335° Northwest 463 533 43,000  Level Seattle Center
Sun 04:22:34 PM 42.8917 -120.6392 335° Northwest 461 531 43,000  Level Seattle Center
Sun 04:23:35 PM 43.0058 -120.7133 335° Northwest 458 527 43,000  Level Seattle Center
Sun 04:24:36 PM 43.1228 -120.7894 335° Northwest 466 536 43,000  Level Seattle Center
Sun 04:25:37 PM 43.2392 -120.8653 335° Northwest 465 535 43,000  Level Seattle Center
Sun 04:26:38 PM 43.3544 -120.9406 335° Northwest 463 533 43,000  Level Seattle Center
Sun 04:27:39 PM 43.4694 -121.0158 335° Northwest 463 533 43,000  Level Seattle Center
Sun 04:28:40 PM 43.5964 -121.0953 336° Northwest 458 527 43,000  Level Seattle Center
Sun 04:29:41 PM 43.7014 -121.1719 332° Northwest 468 539 43,000  Level Seattle Center
Sun 04:30:42 PM 43.8303 -121.2556 335° Northwest 464 534 43,000  Level Seattle Center
Sun 04:31:43 PM 43.9481 -121.3339 334° Northwest 466 536 43,000  Level Seattle Center
Sun 04:32:44 PM 44.0633 -121.4122 334° Northwest 462 532 43,000  Level Seattle Center
Sun 04:33:45 PM 44.1783 -121.4914 334° Northwest 460 529 43,000  Level Seattle Center
Sun 04:34:46 PM 44.2933 -121.5692 334° Northwest 460 529 43,000  Level Seattle Center
Sun 04:35:47 PM 44.4092 -121.6494 334° Northwest 462 532 43,000  Level Seattle Center
Sun 04:36:47 PM 44.5258 -121.7294 334° Northwest 465 535 43,000  Level Seattle Center
Sun 04:37:48 PM 44.6406 -121.8072 334° Northwest 459 528 43,000  Level Seattle Center
Sun 04:38:49 PM 44.7564 -121.8878 334° Northwest 462 532 43,000  Level Seattle Center
Sun 04:39:50 PM 44.8878 -121.9806 333° Northwest 461 531 43,000  Level Seattle Center
Sun 04:40:51 PM 44.9883 -122.0528 333° Northwest 463 533 43,000  Level Seattle Center
Sun 04:41:52 PM 45.1253 -122.1483 334° Northwest 465 535 43,000  Level Seattle Center
Sun 04:42:53 PM 45.2406 -122.2289 334° Northwest 466 536 43,000  Level Seattle Center
Sun 04:43:54 PM 45.3547 -122.3100 333° Northwest 463 533 43,000 -49 Level Seattle Center
Sun 04:44:55 PM 45.4714 -122.3958 333° Northwest 469 540 42,900  Descending Seattle Center
Sun 04:45:56 PM 45.5875 -122.4781 334° Northwest 470 541 43,000 -49 Climbing Seattle Center
Sun 04:46:57 PM 45.7017 -122.5597 333° Northwest 466 536 42,800 -1,279 Descending Seattle Center
Sun 04:47:58 PM 45.8225 -122.6106 344° North 468 539 40,400 -2,410 Descending Seattle Center
Sun 04:48:59 PM 45.9511 -122.6419 350° North 472 543 37,900 -2,361 Descending Seattle Center
Sun 04:50:00 PM 46.0731 -122.6739 350° North 451 519 35,600 -2,311 Descending Seattle Center
Sun 04:51:01 PM 46.2031 -122.7069 350° North 415 478 33,200 -2,311 Descending Seattle Center
Sun 04:52:02 PM 46.3169 -122.7344 351° North 415 478 30,900 -2,262 Descending Seattle Center
Sun 04:53:03 PM 46.4378 -122.7658 350° North 438 504 28,600 -2,361 Descending Seattle Center
Sun 04:54:04 PM 46.5622 -122.7978 350° North 451 519 26,100 -2,410 Descending Seattle Center
Sun 04:55:05 PM 46.6878 -122.8311 350° North 457 526 23,700 -2,262 Descending Seattle Center
Sun 04:56:06 PM 46.8000 -122.8625 349° North 415 478 21,500 -2,225 Descending Seattle Center
Sun 04:56:34 PM 46.8589 -122.8767 351° North 364 419 20,400 -2,000 Descending Seattle Center
Sun 04:57:06 PM 46.9014 -122.8861 351° North 361 415 19,500 -1,742 Descending Seattle Center
Sun 04:58:07 PM 46.9997 -122.8661 North 364 419 17,700 -1,869 Descending Seattle Center
Sun 04:59:08 PM 47.0783 -122.7675 40° Northeast 374 430 15,700 -1,967 Descending Seattle Center
Sun 05:00:09 PM 47.1544 -122.6692 41° Northeast 366 421 13,700 -1,858 Descending Seattle Center
Sun 05:01:01 PM 47.2150 -122.5908 41° Northeast 341 392 12,200 -1,672 Descending Seattle Center
Sun 05:01:10 PM 47.2253 -122.5778 41° Northeast 340 391 12,000 -1,629 Descending Seattle Center
Sun 05:02:11 PM 47.2978 -122.4842 41° Northeast 324 373 10,300 -1,543 Descending Seattle Center
Sun 05:02:20 PM 47.3022 -122.4783 42° Northeast 317 365 10,200 -1,913 Descending Seattle Center
Sun 05:03:20 PM 47.3906 -122.4494 12° North 300 345 8,100 -1,686 Descending Seattle Center
Sun 05:04:21 PM 47.4681 -122.4397 North 299 344 6,800 -1,474 Descending Seattle Center
Sun 05:05:14 PM 47.5436 -122.4339 North 283 326 5,300 -1,600 Descending Seattle Center
Sun 05:05:21 PM 47.5497 -122.4375 338° Northwest 285 328 5,200 -1,475 Descending Seattle Center
Sun 05:06:15 PM 47.6144 -122.4556 349° North 259 298 3,800 -1,527 Descending Seattle Center
Sun 05:06:16 PM 47.6147 -122.4578 281° West 241 277 3,800 -885 Level Seattle Center
Sun 05:07:16 PM 47.6569 -122.4111 37° Northeast 237 273 2,900 -885 Descending Seattle Center
Sun 05:07:17 PM 47.6583 -122.4106 15° North 225 259 2,900 -857 Level Seattle Center
Sun 05:08:05 PM 47.6314 -122.3828 145° Southeast 127 146 2,200 -814 Descending Seattle Center
Sun 05:08:16 PM 47.6264 -122.3772 143° Southeast 136 157 2,100 -655 Descending Seattle Center
Sun 05:09:00 PM 47.6044 -122.3647 159° South 99 114 1,600 -689 Descending Seattle Center
Sun 05:09:17 PM 47.5992 -122.3589 143° Southeast 112 129 1,400 -684 Descending Seattle Center
Sun 05:10:19 PM 47.5708 -122.3372 153° Southeast 118 136 700 -569 Descending Seattle Center
Sun 05:11:13 PM 47.5489 -122.3200 152° Southeast 112 129 300 -400 Descending Seattle Center
Sun 05:11:19 PM 47.5478 -122.3178 127° Southeast 107 123 300  Level Seattle Center

Login

Don't have an account? Register now (free) for customized features, flight alerts, and more!